sensor_id;sensor_type;location;lat;lon;timestamp;P1;durP1;ratioP1;P2;durP2;ratioP2
64907;SDS011;69061;52.236;5.188;2023-08-17T00:00:50;10.88;;;4.32;;
64907;SDS011;69061;52.236;5.188;2023-08-17T00:03:17;8.88;;;4.40;;
64907;SDS011;69061;52.236;5.188;2023-08-17T00:05:44;8.77;;;4.40;;
64907;SDS011;69061;52.236;5.188;2023-08-17T00:08:11;7.47;;;4.22;;
64907;SDS011;69061;52.236;5.188;2023-08-17T00:10:39;7.00;;;4.35;;
64907;SDS011;69061;52.236;5.188;2023-08-17T00:13:06;11.32;;;4.70;;
64907;SDS011;69061;52.236;5.188;2023-08-17T00:15:32;7.07;;;4.40;;
64907;SDS011;69061;52.236;5.188;2023-08-17T00:17:59;8.07;;;4.13;;
64907;SDS011;69061;52.236;5.188;2023-08-17T00:20:27;7.57;;;3.90;;
64907;SDS011;69061;52.236;5.188;2023-08-17T00:22:54;9.98;;;4.22;;
64907;SDS011;69061;52.236;5.188;2023-08-17T00:25:21;10.80;;;4.40;;
64907;SDS011;69061;52.236;5.188;2023-08-17T00:27:50;10.32;;;4.35;;
64907;SDS011;69061;52.236;5.188;2023-08-17T00:30:16;8.40;;;4.03;;
64907;SDS011;69061;52.236;5.188;2023-08-17T00:32:43;7.97;;;4.38;;
64907;SDS011;69061;52.236;5.188;2023-08-17T00:35:10;5.82;;;4.38;;
64907;SDS011;69061;52.236;5.188;2023-08-17T00:37:37;10.35;;;4.30;;
64907;SDS011;69061;52.236;5.188;2023-08-17T00:40:04;11.00;;;5.00;;
64907;SDS011;69061;52.236;5.188;2023-08-17T00:42:32;6.20;;;4.10;;
64907;SDS011;69061;52.236;5.188;2023-08-17T00:45:00;4.60;;;3.72;;
64907;SDS011;69061;52.236;5.188;2023-08-17T00:47:27;6.30;;;3.92;;
64907;SDS011;69061;52.236;5.188;2023-08-17T00:49:55;10.73;;;3.85;;
64907;SDS011;69061;52.236;5.188;2023-08-17T00:52:22;6.20;;;4.15;;
64907;SDS011;69061;52.236;5.188;2023-08-17T00:54:49;12.75;;;4.10;;
64907;SDS011;69061;52.236;5.188;2023-08-17T00:57:16;8.50;;;3.95;;
64907;SDS011;69061;52.236;5.188;2023-08-17T00:59:44;9.32;;;4.55;;
64907;SDS011;69061;52.236;5.188;2023-08-17T01:02:13;9.10;;;4.35;;
64907;SDS011;69061;52.236;5.188;2023-08-17T01:04:40;10.77;;;4.80;;
64907;SDS011;69061;52.236;5.188;2023-08-17T01:07:07;8.02;;;4.22;;
64907;SDS011;69061;52.236;5.188;2023-08-17T01:09:34;14.07;;;4.40;;
64907;SDS011;69061;52.236;5.188;2023-08-17T01:12:05;9.38;;;4.55;;
64907;SDS011;69061;52.236;5.188;2023-08-17T01:14:40;10.38;;;4.85;;
64907;SDS011;69061;52.236;5.188;2023-08-17T01:17:20;12.35;;;6.10;;
64907;SDS011;69061;52.236;5.188;2023-08-17T01:19:51;8.18;;;4.13;;
64907;SDS011;69061;52.236;5.188;2023-08-17T01:22:20;12.88;;;4.53;;
64907;SDS011;69061;52.236;5.188;2023-08-17T01:24:50;8.63;;;4.50;;
64907;SDS011;69061;52.236;5.188;2023-08-17T01:27:22;7.93;;;3.97;;
64907;SDS011;69061;52.236;5.188;2023-08-17T01:29:49;11.70;;;4.68;;
64907;SDS011;69061;52.236;5.188;2023-08-17T01:32:18;10.55;;;5.07;;
64907;SDS011;69061;52.236;5.188;2023-08-17T01:34:53;9.20;;;4.50;;
64907;SDS011;69061;52.236;5.188;2023-08-17T01:37:25;9.65;;;4.70;;
64907;SDS011;69061;52.236;5.188;2023-08-17T01:39:56;12.90;;;5.25;;
64907;SDS011;69061;52.236;5.188;2023-08-17T01:42:25;13.93;;;4.82;;
64907;SDS011;69061;52.236;5.188;2023-08-17T01:44:52;9.80;;;4.93;;
64907;SDS011;69061;52.236;5.188;2023-08-17T01:47:20;8.23;;;4.65;;
64907;SDS011;69061;52.236;5.188;2023-08-17T01:49:47;7.15;;;4.15;;
64907;SDS011;69061;52.236;5.188;2023-08-17T01:52:14;7.63;;;4.50;;
64907;SDS011;69061;52.236;5.188;2023-08-17T01:54:41;8.93;;;4.38;;
64907;SDS011;69061;52.236;5.188;2023-08-17T01:57:09;10.07;;;5.68;;
64907;SDS011;69061;52.236;5.188;2023-08-17T01:59:36;9.07;;;4.72;;
64907;SDS011;69061;52.236;5.188;2023-08-17T02:02:03;9.73;;;4.55;;
64907;SDS011;69061;52.236;5.188;2023-08-17T02:04:30;8.18;;;4.20;;
64907;SDS011;69061;52.236;5.188;2023-08-17T02:06:57;9.02;;;4.78;;
64907;SDS011;69061;52.236;5.188;2023-08-17T02:09:24;10.13;;;4.70;;
64907;SDS011;69061;52.236;5.188;2023-08-17T02:11:51;9.43;;;5.13;;
64907;SDS011;69061;52.236;5.188;2023-08-17T02:14:19;9.40;;;4.53;;
64907;SDS011;69061;52.236;5.188;2023-08-17T02:16:45;15.70;;;4.90;;
64907;SDS011;69061;52.236;5.188;2023-08-17T02:19:12;9.32;;;4.53;;
64907;SDS011;69061;52.236;5.188;2023-08-17T02:21:39;8.00;;;4.88;;
64907;SDS011;69061;52.236;5.188;2023-08-17T02:24:06;17.95;;;5.20;;
64907;SDS011;69061;52.236;5.188;2023-08-17T02:26:33;9.30;;;5.03;;
64907;SDS011;69061;52.236;5.188;2023-08-17T02:29:00;12.13;;;4.75;;
64907;SDS011;69061;52.236;5.188;2023-08-17T02:31:28;12.57;;;4.60;;
64907;SDS011;69061;52.236;5.188;2023-08-17T02:33:55;14.43;;;4.75;;
64907;SDS011;69061;52.236;5.188;2023-08-17T02:36:25;8.30;;;4.40;;
64907;SDS011;69061;52.236;5.188;2023-08-17T02:38:52;7.90;;;4.75;;
64907;SDS011;69061;52.236;5.188;2023-08-17T02:41:19;10.35;;;5.00;;
64907;SDS011;69061;52.236;5.188;2023-08-17T02:43:46;10.35;;;4.57;;
64907;SDS011;69061;52.236;5.188;2023-08-17T02:46:12;7.45;;;4.18;;
64907;SDS011;69061;52.236;5.188;2023-08-17T02:48:40;9.00;;;4.63;;
64907;SDS011;69061;52.236;5.188;2023-08-17T02:51:07;11.48;;;4.68;;
64907;SDS011;69061;52.236;5.188;2023-08-17T02:53:34;6.88;;;4.22;;
64907;SDS011;69061;52.236;5.188;2023-08-17T02:56:01;9.07;;;4.38;;
64907;SDS011;69061;52.236;5.188;2023-08-17T02:58:29;10.60;;;4.30;;
64907;SDS011;69061;52.236;5.188;2023-08-17T03:00:56;8.68;;;4.53;;
64907;SDS011;69061;52.236;5.188;2023-08-17T03:03:23;11.30;;;5.05;;
64907;SDS011;69061;52.236;5.188;2023-08-17T03:05:52;7.43;;;4.95;;
64907;SDS011;69061;52.236;5.188;2023-08-17T03:08:19;10.70;;;4.45;;
64907;SDS011;69061;52.236;5.188;2023-08-17T03:10:46;15.05;;;4.95;;
64907;SDS011;69061;52.236;5.188;2023-08-17T03:13:14;8.48;;;4.65;;
64907;SDS011;69061;52.236;5.188;2023-08-17T03:15:40;10.18;;;5.20;;
64907;SDS011;69061;52.236;5.188;2023-08-17T03:18:07;9.90;;;4.47;;
64907;SDS011;69061;52.236;5.188;2023-08-17T03:20:34;9.32;;;4.38;;
64907;SDS011;69061;52.236;5.188;2023-08-17T03:23:02;8.35;;;4.35;;
64907;SDS011;69061;52.236;5.188;2023-08-17T03:25:31;10.07;;;4.22;;
64907;SDS011;69061;52.236;5.188;2023-08-17T03:27:58;7.13;;;4.22;;
64907;SDS011;69061;52.236;5.188;2023-08-17T03:30:25;8.88;;;4.22;;
64907;SDS011;69061;52.236;5.188;2023-08-17T03:32:52;10.55;;;4.20;;
64907;SDS011;69061;52.236;5.188;2023-08-17T03:35:18;6.72;;;4.60;;
64907;SDS011;69061;52.236;5.188;2023-08-17T03:37:45;12.30;;;4.43;;
64907;SDS011;69061;52.236;5.188;2023-08-17T03:40:13;11.23;;;4.53;;
64907;SDS011;69061;52.236;5.188;2023-08-17T03:42:41;8.85;;;4.45;;
64907;SDS011;69061;52.236;5.188;2023-08-17T03:45:08;8.00;;;4.43;;
64907;SDS011;69061;52.236;5.188;2023-08-17T03:47:35;13.15;;;4.60;;
64907;SDS011;69061;52.236;5.188;2023-08-17T03:50:02;9.13;;;4.53;;
64907;SDS011;69061;52.236;5.188;2023-08-17T03:52:29;6.97;;;3.88;;
64907;SDS011;69061;52.236;5.188;2023-08-17T03:54:56;15.60;;;5.03;;
64907;SDS011;69061;52.236;5.188;2023-08-17T03:57:24;7.82;;;4.60;;
64907;SDS011;69061;52.236;5.188;2023-08-17T03:59:51;9.82;;;4.55;;
64907;SDS011;69061;52.236;5.188;2023-08-17T04:02:17;11.15;;;4.10;;
64907;SDS011;69061;52.236;5.188;2023-08-17T04:04:44;11.40;;;4.75;;
64907;SDS011;69061;52.236;5.188;2023-08-17T04:07:11;8.18;;;4.00;;
64907;SDS011;69061;52.236;5.188;2023-08-17T04:09:46;9.85;;;4.50;;
64907;SDS011;69061;52.236;5.188;2023-08-17T04:12:13;14.27;;;4.28;;
64907;SDS011;69061;52.236;5.188;2023-08-17T04:14:42;8.52;;;4.28;;
64907;SDS011;69061;52.236;5.188;2023-08-17T04:17:09;7.93;;;3.78;;
64907;SDS011;69061;52.236;5.188;2023-08-17T04:19:36;10.27;;;4.00;;
64907;SDS011;69061;52.236;5.188;2023-08-17T04:22:03;7.60;;;4.03;;
64907;SDS011;69061;52.236;5.188;2023-08-17T04:24:29;11.70;;;4.22;;
64907;SDS011;69061;52.236;5.188;2023-08-17T04:26:56;7.53;;;4.22;;
64907;SDS011;69061;52.236;5.188;2023-08-17T04:29:26;6.57;;;3.70;;
64907;SDS011;69061;52.236;5.188;2023-08-17T04:31:54;9.07;;;4.70;;
64907;SDS011;69061;52.236;5.188;2023-08-17T04:34:21;8.88;;;4.47;;
64907;SDS011;69061;52.236;5.188;2023-08-17T04:36:48;11.32;;;3.85;;
64907;SDS011;69061;52.236;5.188;2023-08-17T04:39:15;6.03;;;3.88;;
64907;SDS011;69061;52.236;5.188;2023-08-17T04:41:42;10.25;;;3.78;;
64907;SDS011;69061;52.236;5.188;2023-08-17T04:44:09;6.05;;;3.70;;
64907;SDS011;69061;52.236;5.188;2023-08-17T04:46:36;6.60;;;3.67;;
64907;SDS011;69061;52.236;5.188;2023-08-17T04:49:05;8.43;;;4.25;;
64907;SDS011;69061;52.236;5.188;2023-08-17T04:51:32;6.55;;;3.80;;
64907;SDS011;69061;52.236;5.188;2023-08-17T04:54:00;10.32;;;3.88;;
64907;SDS011;69061;52.236;5.188;2023-08-17T04:56:27;7.25;;;3.88;;
64907;SDS011;69061;52.236;5.188;2023-08-17T04:58:54;10.38;;;3.85;;
64907;SDS011;69061;52.236;5.188;2023-08-17T05:01:21;8.20;;;3.70;;
64907;SDS011;69061;52.236;5.188;2023-08-17T05:03:49;7.20;;;4.10;;
64907;SDS011;69061;52.236;5.188;2023-08-17T05:06:18;6.78;;;4.10;;
64907;SDS011;69061;52.236;5.188;2023-08-17T05:08:45;8.55;;;4.28;;
64907;SDS011;69061;52.236;5.188;2023-08-17T05:11:12;8.45;;;4.63;;
64907;SDS011;69061;52.236;5.188;2023-08-17T05:13:39;9.65;;;4.55;;
64907;SDS011;69061;52.236;5.188;2023-08-17T05:16:05;6.22;;;3.70;;
64907;SDS011;69061;52.236;5.188;2023-08-17T05:18:32;13.57;;;4.60;;
64907;SDS011;69061;52.236;5.188;2023-08-17T05:20:59;8.02;;;4.03;;
64907;SDS011;69061;52.236;5.188;2023-08-17T05:23:27;7.32;;;4.20;;
64907;SDS011;69061;52.236;5.188;2023-08-17T05:25:54;9.10;;;4.63;;
64907;SDS011;69061;52.236;5.188;2023-08-17T05:28:21;14.32;;;4.68;;
64907;SDS011;69061;52.236;5.188;2023-08-17T05:30:48;12.63;;;5.03;;
64907;SDS011;69061;52.236;5.188;2023-08-17T05:33:18;8.85;;;4.00;;
64907;SDS011;69061;52.236;5.188;2023-08-17T05:35:45;7.93;;;3.90;;
64907;SDS011;69061;52.236;5.188;2023-08-17T05:38:12;10.05;;;4.15;;
64907;SDS011;69061;52.236;5.188;2023-08-17T05:40:40;11.50;;;4.30;;
64907;SDS011;69061;52.236;5.188;2023-08-17T05:43:07;6.53;;;4.18;;
64907;SDS011;69061;52.236;5.188;2023-08-17T05:45:34;10.02;;;4.75;;
64907;SDS011;69061;52.236;5.188;2023-08-17T05:48:02;5.45;;;3.67;;
64907;SDS011;69061;52.236;5.188;2023-08-17T05:50:29;9.50;;;4.32;;
64907;SDS011;69061;52.236;5.188;2023-08-17T05:52:56;6.65;;;4.03;;
64907;SDS011;69061;52.236;5.188;2023-08-17T05:55:23;6.10;;;4.47;;
64907;SDS011;69061;52.236;5.188;2023-08-17T05:57:51;10.00;;;4.20;;
64907;SDS011;69061;52.236;5.188;2023-08-17T06:00:18;9.40;;;4.13;;
64907;SDS011;69061;52.236;5.188;2023-08-17T06:02:45;12.23;;;4.25;;
64907;SDS011;69061;52.236;5.188;2023-08-17T06:05:15;12.38;;;4.82;;
64907;SDS011;69061;52.236;5.188;2023-08-17T06:07:42;10.60;;;4.82;;
64907;SDS011;69061;52.236;5.188;2023-08-17T06:10:09;10.45;;;4.82;;
64907;SDS011;69061;52.236;5.188;2023-08-17T06:12:37;10.60;;;4.07;;
64907;SDS011;69061;52.236;5.188;2023-08-17T06:15:06;10.20;;;4.57;;
64907;SDS011;69061;52.236;5.188;2023-08-17T06:17:33;10.75;;;4.63;;
64907;SDS011;69061;52.236;5.188;2023-08-17T06:20:00;9.10;;;4.70;;
64907;SDS011;69061;52.236;5.188;2023-08-17T06:22:28;9.13;;;4.88;;
64907;SDS011;69061;52.236;5.188;2023-08-17T06:24:54;8.60;;;4.68;;
64907;SDS011;69061;52.236;5.188;2023-08-17T06:27:21;11.13;;;5.05;;
64907;SDS011;69061;52.236;5.188;2023-08-17T06:29:48;10.90;;;5.15;;
64907;SDS011;69061;52.236;5.188;2023-08-17T06:32:17;7.78;;;4.55;;
64907;SDS011;69061;52.236;5.188;2023-08-17T06:34:44;10.40;;;5.13;;
64907;SDS011;69061;52.236;5.188;2023-08-17T06:37:11;10.95;;;4.70;;
64907;SDS011;69061;52.236;5.188;2023-08-17T06:39:38;8.65;;;4.95;;
64907;SDS011;69061;52.236;5.188;2023-08-17T06:42:05;9.27;;;4.47;;
64907;SDS011;69061;52.236;5.188;2023-08-17T06:44:32;8.07;;;4.60;;
64907;SDS011;69061;52.236;5.188;2023-08-17T06:46:59;9.65;;;4.68;;
64907;SDS011;69061;52.236;5.188;2023-08-17T06:49:27;11.07;;;4.82;;
64907;SDS011;69061;52.236;5.188;2023-08-17T06:51:54;12.30;;;4.80;;
64907;SDS011;69061;52.236;5.188;2023-08-17T06:54:21;8.25;;;5.35;;
64907;SDS011;69061;52.236;5.188;2023-08-17T06:56:48;9.82;;;4.22;;
64907;SDS011;69061;52.236;5.188;2023-08-17T06:59:15;15.25;;;4.82;;
64907;SDS011;69061;52.236;5.188;2023-08-17T07:01:43;10.80;;;5.20;;
64907;SDS011;69061;52.236;5.188;2023-08-17T07:04:14;9.60;;;4.22;;
64907;SDS011;69061;52.236;5.188;2023-08-17T07:06:43;9.43;;;4.68;;
64907;SDS011;69061;52.236;5.188;2023-08-17T07:09:09;8.10;;;4.68;;
64907;SDS011;69061;52.236;5.188;2023-08-17T07:11:37;7.05;;;4.40;;
64907;SDS011;69061;52.236;5.188;2023-08-17T07:14:04;6.88;;;4.35;;
64907;SDS011;69061;52.236;5.188;2023-08-17T07:16:31;10.20;;;4.70;;
64907;SDS011;69061;52.236;5.188;2023-08-17T07:18:58;10.90;;;4.22;;
64907;SDS011;69061;52.236;5.188;2023-08-17T07:21:25;11.57;;;4.95;;
64907;SDS011;69061;52.236;5.188;2023-08-17T07:23:54;7.25;;;4.38;;
64907;SDS011;69061;52.236;5.188;2023-08-17T07:26:21;6.88;;;4.15;;
64907;SDS011;69061;52.236;5.188;2023-08-17T07:28:48;9.63;;;4.68;;
64907;SDS011;69061;52.236;5.188;2023-08-17T07:31:15;13.48;;;4.55;;
64907;SDS011;69061;52.236;5.188;2023-08-17T07:33:42;7.88;;;3.75;;
64907;SDS011;69061;52.236;5.188;2023-08-17T07:36:09;8.38;;;4.03;;
64907;SDS011;69061;52.236;5.188;2023-08-17T07:38:36;7.80;;;3.97;;
64907;SDS011;69061;52.236;5.188;2023-08-17T07:41:04;5.82;;;3.67;;
64907;SDS011;69061;52.236;5.188;2023-08-17T07:43:31;9.50;;;3.95;;
64907;SDS011;69061;52.236;5.188;2023-08-17T07:45:58;10.40;;;4.07;;
64907;SDS011;69061;52.236;5.188;2023-08-17T07:48:24;6.18;;;4.38;;
64907;SDS011;69061;52.236;5.188;2023-08-17T07:50:51;10.82;;;4.00;;
64907;SDS011;69061;52.236;5.188;2023-08-17T07:53:19;8.07;;;4.22;;
64907;SDS011;69061;52.236;5.188;2023-08-17T07:55:46;10.73;;;4.18;;
64907;SDS011;69061;52.236;5.188;2023-08-17T07:58:14;6.43;;;3.75;;
64907;SDS011;69061;52.236;5.188;2023-08-17T08:00:41;10.65;;;5.47;;
64907;SDS011;69061;52.236;5.188;2023-08-17T08:03:08;8.65;;;4.47;;
64907;SDS011;69061;52.236;5.188;2023-08-17T08:05:35;5.97;;;3.80;;
64907;SDS011;69061;52.236;5.188;2023-08-17T08:08:02;10.88;;;4.70;;
64907;SDS011;69061;52.236;5.188;2023-08-17T08:10:29;8.98;;;4.30;;
64907;SDS011;69061;52.236;5.188;2023-08-17T08:12:56;17.00;;;5.28;;
64907;SDS011;69061;52.236;5.188;2023-08-17T08:15:24;12.18;;;4.40;;
64907;SDS011;69061;52.236;5.188;2023-08-17T08:17:51;5.78;;;4.25;;
64907;SDS011;69061;52.236;5.188;2023-08-17T08:20:18;7.70;;;4.40;;
64907;SDS011;69061;52.236;5.188;2023-08-17T08:22:46;11.75;;;5.43;;
64907;SDS011;69061;52.236;5.188;2023-08-17T08:25:13;9.30;;;4.65;;
64907;SDS011;69061;52.236;5.188;2023-08-17T08:27:40;10.57;;;4.90;;
64907;SDS011;69061;52.236;5.188;2023-08-17T08:30:07;6.35;;;4.22;;
64907;SDS011;69061;52.236;5.188;2023-08-17T08:32:35;19.23;;;5.22;;
64907;SDS011;69061;52.236;5.188;2023-08-17T08:35:02;10.38;;;4.28;;
64907;SDS011;69061;52.236;5.188;2023-08-17T08:37:30;8.07;;;4.63;;
64907;SDS011;69061;52.236;5.188;2023-08-17T08:39:57;11.77;;;4.45;;
64907;SDS011;69061;52.236;5.188;2023-08-17T08:42:24;5.82;;;3.92;;
64907;SDS011;69061;52.236;5.188;2023-08-17T08:44:51;7.70;;;4.47;;
64907;SDS011;69061;52.236;5.188;2023-08-17T08:47:18;8.40;;;3.42;;
64907;SDS011;69061;52.236;5.188;2023-08-17T08:49:49;7.88;;;4.22;;
64907;SDS011;69061;52.236;5.188;2023-08-17T08:52:26;10.15;;;4.65;;
64907;SDS011;69061;52.236;5.188;2023-08-17T08:54:59;7.53;;;4.47;;
64907;SDS011;69061;52.236;5.188;2023-08-17T08:57:37;13.65;;;4.50;;
64907;SDS011;69061;52.236;5.188;2023-08-17T09:00:05;9.70;;;4.07;;
64907;SDS011;69061;52.236;5.188;2023-08-17T09:02:33;9.82;;;4.60;;
64907;SDS011;69061;52.236;5.188;2023-08-17T09:05:01;8.90;;;4.25;;
64907;SDS011;69061;52.236;5.188;2023-08-17T09:07:29;11.80;;;3.97;;
64907;SDS011;69061;52.236;5.188;2023-08-17T09:09:56;7.55;;;4.30;;
64907;SDS011;69061;52.236;5.188;2023-08-17T09:12:23;9.20;;;4.03;;
64907;SDS011;69061;52.236;5.188;2023-08-17T09:14:51;8.90;;;4.22;;
64907;SDS011;69061;52.236;5.188;2023-08-17T09:17:22;8.43;;;4.53;;
64907;SDS011;69061;52.236;5.188;2023-08-17T09:19:49;10.73;;;4.25;;
64907;SDS011;69061;52.236;5.188;2023-08-17T09:22:23;10.32;;;4.32;;
64907;SDS011;69061;52.236;5.188;2023-08-17T09:24:50;8.68;;;4.20;;
64907;SDS011;69061;52.236;5.188;2023-08-17T09:27:17;11.60;;;5.07;;
64907;SDS011;69061;52.236;5.188;2023-08-17T09:29:46;10.15;;;4.50;;
64907;SDS011;69061;52.236;5.188;2023-08-17T09:32:14;10.20;;;4.60;;
64907;SDS011;69061;52.236;5.188;2023-08-17T09:34:41;7.60;;;3.95;;
64907;SDS011;69061;52.236;5.188;2023-08-17T09:37:08;8.40;;;3.90;;
64907;SDS011;69061;52.236;5.188;2023-08-17T09:39:36;9.10;;;4.38;;
64907;SDS011;69061;52.236;5.188;2023-08-17T09:42:03;9.00;;;4.00;;
64907;SDS011;69061;52.236;5.188;2023-08-17T09:44:32;10.90;;;4.63;;
64907;SDS011;69061;52.236;5.188;2023-08-17T09:46:59;5.50;;;3.65;;
64907;SDS011;69061;52.236;5.188;2023-08-17T09:49:26;9.43;;;4.15;;
64907;SDS011;69061;52.236;5.188;2023-08-17T09:51:59;7.10;;;4.10;;
64907;SDS011;69061;52.236;5.188;2023-08-17T09:54:27;8.60;;;4.40;;
64907;SDS011;69061;52.236;5.188;2023-08-17T09:56:58;8.82;;;4.20;;
64907;SDS011;69061;52.236;5.188;2023-08-17T09:59:25;8.40;;;4.85;;
64907;SDS011;69061;52.236;5.188;2023-08-17T10:01:52;11.82;;;3.83;;
64907;SDS011;69061;52.236;5.188;2023-08-17T10:04:21;9.65;;;4.75;;
64907;SDS011;69061;52.236;5.188;2023-08-17T10:06:50;7.50;;;4.00;;
64907;SDS011;69061;52.236;5.188;2023-08-17T10:09:19;10.40;;;4.68;;
64907;SDS011;69061;52.236;5.188;2023-08-17T10:11:50;10.27;;;4.07;;
64907;SDS011;69061;52.236;5.188;2023-08-17T10:14:21;10.45;;;4.18;;
64907;SDS011;69061;52.236;5.188;2023-08-17T10:16:53;7.80;;;4.50;;
64907;SDS011;69061;52.236;5.188;2023-08-17T10:19:29;8.23;;;4.72;;
64907;SDS011;69061;52.236;5.188;2023-08-17T10:22:03;9.20;;;5.00;;
64907;SDS011;69061;52.236;5.188;2023-08-17T10:24:39;10.32;;;5.13;;
64907;SDS011;69061;52.236;5.188;2023-08-17T10:27:06;8.18;;;4.80;;
64907;SDS011;69061;52.236;5.188;2023-08-17T10:29:35;12.18;;;6.13;;
64907;SDS011;69061;52.236;5.188;2023-08-17T10:32:05;9.73;;;4.82;;
64907;SDS011;69061;52.236;5.188;2023-08-17T10:34:32;9.30;;;4.68;;
64907;SDS011;69061;52.236;5.188;2023-08-17T10:37:00;11.10;;;5.20;;
64907;SDS011;69061;52.236;5.188;2023-08-17T10:39:28;11.13;;;5.43;;
64907;SDS011;69061;52.236;5.188;2023-08-17T10:41:56;15.60;;;5.03;;
64907;SDS011;69061;52.236;5.188;2023-08-17T10:44:42;10.20;;;4.57;;
64907;SDS011;69061;52.236;5.188;2023-08-17T10:47:20;14.93;;;4.93;;
64907;SDS011;69061;52.236;5.188;2023-08-17T10:49:51;10.95;;;5.82;;
64907;SDS011;69061;52.236;5.188;2023-08-17T10:52:25;11.25;;;5.53;;
64907;SDS011;69061;52.236;5.188;2023-08-17T10:54:53;10.95;;;4.97;;
64907;SDS011;69061;52.236;5.188;2023-08-17T10:57:31;9.50;;;5.50;;
64907;SDS011;69061;52.236;5.188;2023-08-17T11:00:12;10.73;;;5.10;;
64907;SDS011;69061;52.236;5.188;2023-08-17T11:02:52;12.48;;;5.50;;
64907;SDS011;69061;52.236;5.188;2023-08-17T11:05:36;13.18;;;5.90;;
64907;SDS011;69061;52.236;5.188;2023-08-17T11:08:05;12.82;;;6.53;;
64907;SDS011;69061;52.236;5.188;2023-08-17T11:10:34;11.77;;;5.95;;
64907;SDS011;69061;52.236;5.188;2023-08-17T11:13:01;10.20;;;5.70;;
64907;SDS011;69061;52.236;5.188;2023-08-17T11:15:36;14.32;;;5.85;;
64907;SDS011;69061;52.236;5.188;2023-08-17T11:18:05;10.30;;;4.95;;
64907;SDS011;69061;52.236;5.188;2023-08-17T11:20:33;11.57;;;5.50;;
64907;SDS011;69061;52.236;5.188;2023-08-17T11:23:00;10.13;;;4.63;;
64907;SDS011;69061;52.236;5.188;2023-08-17T11:25:27;8.32;;;4.50;;
64907;SDS011;69061;52.236;5.188;2023-08-17T11:27:54;12.88;;;5.70;;
64907;SDS011;69061;52.236;5.188;2023-08-17T11:30:21;11.13;;;5.47;;
64907;SDS011;69061;52.236;5.188;2023-08-17T11:32:50;9.18;;;6.05;;
64907;SDS011;69061;52.236;5.188;2023-08-17T11:35:18;10.45;;;5.60;;
64907;SDS011;69061;52.236;5.188;2023-08-17T11:37:46;15.45;;;6.60;;
64907;SDS011;69061;52.236;5.188;2023-08-17T11:40:13;18.88;;;6.15;;
64907;SDS011;69061;52.236;5.188;2023-08-17T11:42:40;12.18;;;5.50;;
64907;SDS011;69061;52.236;5.188;2023-08-17T11:45:08;14.13;;;6.22;;
64907;SDS011;69061;52.236;5.188;2023-08-17T11:47:35;15.90;;;7.13;;
64907;SDS011;69061;52.236;5.188;2023-08-17T11:50:04;16.25;;;6.30;;
64907;SDS011;69061;52.236;5.188;2023-08-17T11:52:32;12.02;;;5.75;;
64907;SDS011;69061;52.236;5.188;2023-08-17T11:55:01;20.52;;;6.75;;
64907;SDS011;69061;52.236;5.188;2023-08-17T11:57:29;11.18;;;6.38;;
64907;SDS011;69061;52.236;5.188;2023-08-17T11:59:56;8.13;;;5.30;;
64907;SDS011;69061;52.236;5.188;2023-08-17T12:02:24;10.02;;;6.05;;
64907;SDS011;69061;52.236;5.188;2023-08-17T12:04:52;11.10;;;6.60;;
64907;SDS011;69061;52.236;5.188;2023-08-17T12:07:21;8.57;;;6.05;;
64907;SDS011;69061;52.236;5.188;2023-08-17T12:09:50;17.00;;;6.63;;
64907;SDS011;69061;52.236;5.188;2023-08-17T12:12:18;10.70;;;6.35;;
64907;SDS011;69061;52.236;5.188;2023-08-17T12:14:47;12.23;;;6.43;;
64907;SDS011;69061;52.236;5.188;2023-08-17T12:17:14;16.52;;;6.80;;
64907;SDS011;69061;52.236;5.188;2023-08-17T12:19:42;9.02;;;5.80;;
64907;SDS011;69061;52.236;5.188;2023-08-17T12:22:09;9.95;;;5.65;;
64907;SDS011;69061;52.236;5.188;2023-08-17T12:24:38;7.05;;;5.25;;
64907;SDS011;69061;52.236;5.188;2023-08-17T12:27:05;13.15;;;6.53;;
64907;SDS011;69061;52.236;5.188;2023-08-17T12:29:32;20.15;;;6.88;;
64907;SDS011;69061;52.236;5.188;2023-08-17T12:31:58;16.30;;;6.75;;
64907;SDS011;69061;52.236;5.188;2023-08-17T12:34:27;12.10;;;6.00;;
64907;SDS011;69061;52.236;5.188;2023-08-17T12:36:54;15.52;;;5.85;;
64907;SDS011;69061;52.236;5.188;2023-08-17T12:39:20;12.70;;;6.35;;
64907;SDS011;69061;52.236;5.188;2023-08-17T12:41:48;22.63;;;7.75;;
64907;SDS011;69061;52.236;5.188;2023-08-17T12:44:15;9.00;;;5.53;;
64907;SDS011;69061;52.236;5.188;2023-08-17T12:46:42;11.25;;;5.57;;
64907;SDS011;69061;52.236;5.188;2023-08-17T12:49:09;15.07;;;7.25;;
64907;SDS011;69061;52.236;5.188;2023-08-17T12:51:35;10.77;;;6.20;;
64907;SDS011;69061;52.236;5.188;2023-08-17T12:54:03;14.57;;;6.85;;
64907;SDS011;69061;52.236;5.188;2023-08-17T12:56:30;12.15;;;6.95;;
64907;SDS011;69061;52.236;5.188;2023-08-17T12:58:58;13.93;;;7.80;;
64907;SDS011;69061;52.236;5.188;2023-08-17T13:01:25;15.27;;;7.55;;
64907;SDS011;69061;52.236;5.188;2023-08-17T13:03:52;11.90;;;6.88;;
64907;SDS011;69061;52.236;5.188;2023-08-17T13:06:19;15.35;;;7.22;;
64907;SDS011;69061;52.236;5.188;2023-08-17T13:08:46;14.13;;;6.88;;
64907;SDS011;69061;52.236;5.188;2023-08-17T13:11:13;12.65;;;6.40;;
64907;SDS011;69061;52.236;5.188;2023-08-17T13:13:40;14.30;;;6.78;;
64907;SDS011;69061;52.236;5.188;2023-08-17T13:16:08;11.32;;;7.35;;
64907;SDS011;69061;52.236;5.188;2023-08-17T13:18:36;14.05;;;6.60;;
64907;SDS011;69061;52.236;5.188;2023-08-17T13:21:03;11.35;;;6.68;;
64907;SDS011;69061;52.236;5.188;2023-08-17T13:23:29;11.48;;;6.68;;
64907;SDS011;69061;52.236;5.188;2023-08-17T13:25:56;10.82;;;7.22;;
64907;SDS011;69061;52.236;5.188;2023-08-17T13:28:23;16.42;;;7.15;;
64907;SDS011;69061;52.236;5.188;2023-08-17T13:30:50;9.32;;;6.82;;
64907;SDS011;69061;52.236;5.188;2023-08-17T13:33:19;18.50;;;7.55;;
64907;SDS011;69061;52.236;5.188;2023-08-17T13:35:46;12.88;;;6.70;;
64907;SDS011;69061;52.236;5.188;2023-08-17T13:38:12;13.20;;;6.65;;
64907;SDS011;69061;52.236;5.188;2023-08-17T13:40:39;13.82;;;6.78;;
64907;SDS011;69061;52.236;5.188;2023-08-17T13:43:06;12.63;;;6.53;;
64907;SDS011;69061;52.236;5.188;2023-08-17T13:45:37;11.25;;;6.18;;
64907;SDS011;69061;52.236;5.188;2023-08-17T13:48:05;13.20;;;7.18;;
64907;SDS011;69061;52.236;5.188;2023-08-17T13:50:34;10.65;;;5.90;;
64907;SDS011;69061;52.236;5.188;2023-08-17T13:53:05;12.40;;;6.68;;
64907;SDS011;69061;52.236;5.188;2023-08-17T13:55:32;12.50;;;7.15;;
64907;SDS011;69061;52.236;5.188;2023-08-17T13:58:00;12.68;;;6.22;;
64907;SDS011;69061;52.236;5.188;2023-08-17T14:00:27;8.68;;;5.53;;
64907;SDS011;69061;52.236;5.188;2023-08-17T14:02:54;12.25;;;6.07;;
64907;SDS011;69061;52.236;5.188;2023-08-17T14:05:21;10.98;;;6.25;;
64907;SDS011;69061;52.236;5.188;2023-08-17T14:07:49;10.48;;;6.47;;
64907;SDS011;69061;52.236;5.188;2023-08-17T14:10:16;10.60;;;6.15;;
64907;SDS011;69061;52.236;5.188;2023-08-17T14:12:42;10.73;;;6.22;;
64907;SDS011;69061;52.236;5.188;2023-08-17T14:15:09;11.60;;;7.05;;
64907;SDS011;69061;52.236;5.188;2023-08-17T14:17:37;8.48;;;6.40;;
64907;SDS011;69061;52.236;5.188;2023-08-17T14:20:06;10.68;;;6.95;;
64907;SDS011;69061;52.236;5.188;2023-08-17T14:22:34;7.80;;;5.97;;
64907;SDS011;69061;52.236;5.188;2023-08-17T14:25:03;11.75;;;5.85;;
64907;SDS011;69061;52.236;5.188;2023-08-17T14:27:30;22.45;;;6.70;;
64907;SDS011;69061;52.236;5.188;2023-08-17T14:29:56;9.77;;;6.10;;
64907;SDS011;69061;52.236;5.188;2023-08-17T14:32:26;11.95;;;6.75;;
64907;SDS011;69061;52.236;5.188;2023-08-17T14:34:53;8.90;;;5.75;;
64907;SDS011;69061;52.236;5.188;2023-08-17T14:37:21;12.13;;;6.03;;
64907;SDS011;69061;52.236;5.188;2023-08-17T14:39:47;14.93;;;6.68;;
64907;SDS011;69061;52.236;5.188;2023-08-17T14:42:16;12.35;;;7.55;;
64907;SDS011;69061;52.236;5.188;2023-08-17T14:44:43;11.35;;;7.78;;